sensor_id;sensor_type;location;lat;lon;timestamp;pressure;altitude;pressure_sealevel;temperature;humidity
72262;BME280;60173;52.112;8.648;2023-04-01T00:02:14;98453.44;;;8.63;100.00
72262;BME280;60173;52.112;8.648;2023-04-01T00:04:41;98458.38;;;8.61;100.00
72262;BME280;60173;52.112;8.648;2023-04-01T00:07:07;98447.31;;;8.54;100.00
72262;BME280;60173;52.112;8.648;2023-04-01T00:09:34;98452.28;;;8.52;100.00
72262;BME280;60173;52.112;8.648;2023-04-01T00:12:00;98446.75;;;8.48;100.00
72262;BME280;60173;52.112;8.648;2023-04-01T00:14:27;98452.16;;;8.48;100.00
72262;BME280;60173;52.112;8.648;2023-04-01T00:16:53;98448.44;;;8.53;100.00
72262;BME280;60173;52.112;8.648;2023-04-01T00:19:20;98449.81;;;8.59;100.00
72262;BME280;60173;52.112;8.648;2023-04-01T00:21:46;98448.50;;;8.65;100.00
72262;BME280;60173;52.112;8.648;2023-04-01T00:24:12;98446.38;;;8.71;100.00
72262;BME280;60173;52.112;8.648;2023-04-01T00:26:39;98448.34;;;8.62;100.00
72262;BME280;60173;52.112;8.648;2023-04-01T00:29:05;98446.00;;;8.60;100.00
72262;BME280;60173;52.112;8.648;2023-04-01T00:31:32;98444.53;;;8.63;100.00
72262;BME280;60173;52.112;8.648;2023-04-01T00:33:58;98445.97;;;8.48;100.00
72262;BME280;60173;52.112;8.648;2023-04-01T00:36:24;98439.97;;;8.42;100.00
72262;BME280;60173;52.112;8.648;2023-04-01T00:38:51;98442.50;;;8.38;100.00
72262;BME280;60173;52.112;8.648;2023-04-01T00:41:18;98436.59;;;8.45;100.00
72262;BME280;60173;52.112;8.648;2023-04-01T00:43:47;98439.28;;;8.45;100.00
72262;BME280;60173;52.112;8.648;2023-04-01T00:46:14;98438.28;;;8.50;100.00
72262;BME280;60173;52.112;8.648;2023-04-01T00:48:43;98436.81;;;8.52;100.00
72262;BME280;60173;52.112;8.648;2023-04-01T00:51:14;98443.84;;;8.53;100.00
72262;BME280;60173;52.112;8.648;2023-04-01T00:53:45;98440.63;;;8.39;100.00
72262;BME280;60173;52.112;8.648;2023-04-01T00:56:16;98438.34;;;8.41;100.00
72262;BME280;60173;52.112;8.648;2023-04-01T00:58:50;98439.88;;;8.51;100.00
72262;BME280;60173;52.112;8.648;2023-04-01T01:01:19;98438.28;;;8.50;100.00
72262;BME280;60173;52.112;8.648;2023-04-01T01:03:46;98448.13;;;8.54;100.00
72262;BME280;60173;52.112;8.648;2023-04-01T01:09:27;98443.84;;;8.53;100.00
72262;BME280;60173;52.112;8.648;2023-04-01T01:17:37;98435.91;;;8.27;100.00
72262;BME280;60173;52.112;8.648;2023-04-01T01:20:31;98440.53;;;8.27;100.00
72262;BME280;60173;52.112;8.648;2023-04-01T01:28:44;98434.81;;;8.28;100.00
72262;BME280;60173;52.112;8.648;2023-04-01T01:31:29;98436.50;;;8.33;100.00
72262;BME280;60173;52.112;8.648;2023-04-01T01:34:11;98438.72;;;8.40;100.00
72262;BME280;60173;52.112;8.648;2023-04-01T01:36:42;98438.34;;;8.41;100.00
72262;BME280;60173;52.112;8.648;2023-04-01T01:39:12;98428.84;;;8.35;100.00
72262;BME280;60173;52.112;8.648;2023-04-01T01:41:41;98434.25;;;8.35;100.00
72262;BME280;60173;52.112;8.648;2023-04-01T01:44:09;98424.88;;;8.32;100.00
72262;BME280;60173;52.112;8.648;2023-04-01T01:46:38;98428.38;;;8.33;100.00
72262;BME280;60173;52.112;8.648;2023-04-01T01:49:06;98421.69;;;8.39;100.00
72262;BME280;60173;52.112;8.648;2023-04-01T01:51:33;98422.13;;;8.41;100.00
72262;BME280;60173;52.112;8.648;2023-04-01T01:54:00;98428.47;;;8.45;100.00
72262;BME280;60173;52.112;8.648;2023-04-01T01:56:27;98427.03;;;8.48;100.00
72262;BME280;60173;52.112;8.648;2023-04-01T01:59:00;98425.97;;;8.40;100.00
72262;BME280;60173;52.112;8.648;2023-04-01T02:01:31;98425.31;;;8.43;100.00
72262;BME280;60173;52.112;8.648;2023-04-01T02:03:59;98425.47;;;8.38;100.00
72262;BME280;60173;52.112;8.648;2023-04-01T02:06:29;98422.13;;;8.41;100.00
72262;BME280;60173;52.112;8.648;2023-04-01T02:09:04;98424.22;;;8.35;100.00
72262;BME280;60173;52.112;8.648;2023-04-01T02:11:46;98430.25;;;8.41;100.00
72262;BME280;60173;52.112;8.648;2023-04-01T02:14:39;98427.00;;;8.27;100.00
72262;BME280;60173;52.112;8.648;2023-04-01T02:17:11;98423.44;;;8.35;100.00
72262;BME280;60173;52.112;8.648;2023-04-01T02:19:43;98424.56;;;8.34;100.00
72262;BME280;60173;52.112;8.648;2023-04-01T02:22:16;98426.19;;;8.47;100.00
72262;BME280;60173;52.112;8.648;2023-04-01T02:24:45;98429.97;;;8.34;100.00
72262;BME280;60173;52.112;8.648;2023-04-01T02:27:12;98425.47;;;8.38;100.00
72262;BME280;60173;52.112;8.648;2023-04-01T02:29:38;98423.88;;;8.25;100.00
72262;BME280;60173;52.112;8.648;2023-04-01T02:32:06;98427.94;;;8.31;100.00
72262;BME280;60173;52.112;8.648;2023-04-01T02:34:33;98425.44;;;8.26;100.00
72262;BME280;60173;52.112;8.648;2023-04-01T02:37:00;98426.50;;;8.33;100.00
72262;BME280;60173;52.112;8.648;2023-04-01T02:39:26;98429.50;;;8.32;100.00
72262;BME280;60173;52.112;8.648;2023-04-01T02:41:53;98426.59;;;8.37;100.00
72262;BME280;60173;52.112;8.648;2023-04-01T02:44:19;98425.97;;;8.19;100.00
72262;BME280;60173;52.112;8.648;2023-04-01T02:46:46;98427.44;;;8.17;100.00
72262;BME280;60173;52.112;8.648;2023-04-01T02:49:12;98424.31;;;8.27;100.00
72262;BME280;60173;52.112;8.648;2023-04-01T02:51:38;98423.72;;;8.21;100.00
72262;BME280;60173;52.112;8.648;2023-04-01T02:54:05;98423.72;;;8.21;100.00
72262;BME280;60173;52.112;8.648;2023-04-01T02:56:31;98428.53;;;8.15;100.00
72262;BME280;60173;52.112;8.648;2023-04-01T02:58:58;98429.94;;;8.22;100.00
72262;BME280;60173;52.112;8.648;2023-04-01T03:01:24;98432.28;;;8.23;100.00
72262;BME280;60173;52.112;8.648;2023-04-01T03:03:50;98424.97;;;8.24;100.00
72262;BME280;60173;52.112;8.648;2023-04-01T03:06:17;98430.38;;;8.24;100.00
72262;BME280;60173;52.112;8.648;2023-04-01T03:08:44;98433.63;;;8.17;100.00
72262;BME280;60173;52.112;8.648;2023-04-01T03:11:11;98433.34;;;8.10;100.00
72262;BME280;60173;52.112;8.648;2023-04-01T03:13:37;98429.66;;;8.14;100.00
72262;BME280;60173;52.112;8.648;2023-04-01T03:16:04;98434.69;;;8.25;100.00
72262;BME280;60173;52.112;8.648;2023-04-01T03:18:31;98430.72;;;8.22;100.00
72262;BME280;60173;52.112;8.648;2023-04-01T03:20:57;98432.50;;;8.18;100.00
72262;BME280;60173;52.112;8.648;2023-04-01T03:23:23;98435.53;;;8.17;100.00
72262;BME280;60173;52.112;8.648;2023-04-01T03:25:50;98436.50;;;8.33;100.00
72262;BME280;60173;52.112;8.648;2023-04-01T03:28:16;98440.59;;;8.18;100.00
72262;BME280;60173;52.112;8.648;2023-04-01T03:30:42;98439.94;;;8.21;100.00
72262;BME280;60173;52.112;8.648;2023-04-01T03:33:09;98444.63;;;8.12;100.00
72262;BME280;60173;52.112;8.648;2023-04-01T03:35:35;98448.28;;;8.16;100.00
72262;BME280;60173;52.112;8.648;2023-04-01T03:38:02;98444.56;;;8.21;100.00
72262;BME280;60173;52.112;8.648;2023-04-01T03:40:28;98441.38;;;8.19;100.00
72262;BME280;60173;52.112;8.648;2023-04-01T03:42:55;98439.03;;;8.17;100.00
72262;BME280;60173;52.112;8.648;2023-04-01T03:45:21;98437.81;;;8.27;100.00
72262;BME280;60173;52.112;8.648;2023-04-01T03:47:47;98441.66;;;8.26;100.00
72262;BME280;60173;52.112;8.648;2023-04-01T03:50:14;98436.13;;;8.22;100.00
72262;BME280;60173;52.112;8.648;2023-04-01T03:52:40;98437.09;;;8.18;100.00
72262;BME280;60173;52.112;8.648;2023-04-01T03:55:07;98446.78;;;8.19;100.00
72262;BME280;60173;52.112;8.648;2023-04-01T03:57:33;98437.56;;;8.20;100.00
72262;BME280;60173;52.112;8.648;2023-04-01T03:59:59;98445.34;;;8.21;100.00
72262;BME280;60173;52.112;8.648;2023-04-01T04:02:26;98442.31;;;8.23;100.00
72262;BME280;60173;52.112;8.648;2023-04-01T04:04:52;98443.53;;;8.13;100.00
72262;BME280;60173;52.112;8.648;2023-04-01T04:07:19;98446.66;;;8.15;100.00
72262;BME280;60173;52.112;8.648;2023-04-01T04:09:45;98447.81;;;8.14;100.00
72262;BME280;60173;52.112;8.648;2023-04-01T04:12:11;98453.34;;;8.18;100.00
72262;BME280;60173;52.112;8.648;2023-04-01T04:14:38;98453.34;;;8.18;100.00
72262;BME280;60173;52.112;8.648;2023-04-01T04:17:04;98453.34;;;8.18;100.00
72262;BME280;60173;52.112;8.648;2023-04-01T04:19:33;98453.75;;;8.07;100.00
72262;BME280;60173;52.112;8.648;2023-04-01T04:22:00;98456.22;;;8.12;100.00
72262;BME280;60173;52.112;8.648;2023-04-01T04:24:26;98448.72;;;8.18;100.00
72262;BME280;60173;52.112;8.648;2023-04-01T04:26:52;98454.84;;;8.06;100.00
72262;BME280;60173;52.112;8.648;2023-04-01T04:29:19;98451.03;;;8.07;100.00
72262;BME280;60173;52.112;8.648;2023-04-01T04:31:45;98444.31;;;8.13;100.00
72262;BME280;60173;52.112;8.648;2023-04-01T04:34:11;98452.66;;;8.21;100.00
72262;BME280;60173;52.112;8.648;2023-04-01T04:36:38;98449.31;;;8.24;100.00
72262;BME280;60173;52.112;8.648;2023-04-01T04:39:04;98456.63;;;8.23;100.00
72262;BME280;60173;52.112;8.648;2023-04-01T04:41:30;98450.22;;;8.07;100.00
72262;BME280;60173;52.112;8.648;2023-04-01T04:43:57;98450.09;;;8.03;100.00
72262;BME280;60173;52.112;8.648;2023-04-01T04:46:24;98449.38;;;8.15;100.00
72262;BME280;60173;52.112;8.648;2023-04-01T04:48:50;98449.56;;;8.10;100.00
72262;BME280;60173;52.112;8.648;2023-04-01T04:51:18;98455.78;;;8.10;100.00
72262;BME280;60173;52.112;8.648;2023-04-01T04:53:45;98458.94;;;8.12;100.00
72262;BME280;60173;52.112;8.648;2023-04-01T04:56:12;98460.53;;;8.13;100.00
72262;BME280;60173;52.112;8.648;2023-04-01T04:58:39;98460.38;;;8.10;100.00
72262;BME280;60173;52.112;8.648;2023-04-01T05:01:10;98467.50;;;8.14;100.00
72262;BME280;60173;52.112;8.648;2023-04-01T05:03:37;98465.94;;;8.13;100.00
72262;BME280;60173;52.112;8.648;2023-04-01T05:06:05;98471.66;;;8.12;100.00
72262;BME280;60173;52.112;8.648;2023-04-01T05:08:32;98474.72;;;8.10;100.00
72262;BME280;60173;52.112;8.648;2023-04-01T05:11:00;98467.50;;;8.14;100.00
72262;BME280;60173;52.112;8.648;2023-04-01T05:13:27;98473.47;;;8.08;100.00
72262;BME280;60173;52.112;8.648;2023-04-01T05:15:53;98474.91;;;8.05;100.00
72262;BME280;60173;52.112;8.648;2023-04-01T05:18:19;98475.56;;;8.02;100.00
72262;BME280;60173;52.112;8.648;2023-04-01T05:20:51;98473.97;;;8.01;100.00
72262;BME280;60173;52.112;8.648;2023-04-01T05:23:18;98475.09;;;8.00;100.00
72262;BME280;60173;52.112;8.648;2023-04-01T05:25:44;98475.75;;;7.97;100.00
72262;BME280;60173;52.112;8.648;2023-04-01T05:28:11;98484.53;;;7.94;100.00
72262;BME280;60173;52.112;8.648;2023-04-01T05:30:40;98481.22;;;8.09;100.00
72262;BME280;60173;52.112;8.648;2023-04-01T05:33:06;98482.41;;;8.00;100.00
72262;BME280;60173;52.112;8.648;2023-04-01T05:35:33;98484.34;;;7.99;100.00
72262;BME280;60173;52.112;8.648;2023-04-01T05:38:00;98477.13;;;8.03;100.00
72262;BME280;60173;52.112;8.648;2023-04-01T05:40:27;98482.22;;;8.05;100.00
72262;BME280;60173;52.112;8.648;2023-04-01T05:42:54;98480.78;;;8.07;100.00
72262;BME280;60173;52.112;8.648;2023-04-01T05:45:20;98486.19;;;8.07;100.00
72262;BME280;60173;52.112;8.648;2023-04-01T05:47:47;98480.25;;;7.93;100.00
72262;BME280;60173;52.112;8.648;2023-04-01T05:50:13;98486.09;;;7.95;100.00
72262;BME280;60173;52.112;8.648;2023-04-01T05:52:40;98483.22;;;8.00;100.00
72262;BME280;60173;52.112;8.648;2023-04-01T05:55:06;98486.38;;;8.02;100.00
72262;BME280;60173;52.112;8.648;2023-04-01T05:57:33;98485.44;;;7.98;100.00
72262;BME280;60173;52.112;8.648;2023-04-01T06:00:00;98489.28;;;7.97;100.00
72262;BME280;60173;52.112;8.648;2023-04-01T06:02:26;98486.03;;;8.04;100.00
72262;BME280;60173;52.112;8.648;2023-04-01T06:05:03;98499.72;;;8.07;100.00
72262;BME280;60173;52.112;8.648;2023-04-01T06:07:37;98497.19;;;8.02;100.00
72262;BME280;60173;52.112;8.648;2023-04-01T06:10:12;98497.31;;;8.06;100.00
72262;BME280;60173;52.112;8.648;2023-04-01T06:12:46;98499.84;;;8.11;100.00
72262;BME280;60173;52.112;8.648;2023-04-01T06:15:36;98502.84;;;8.09;100.00
72262;BME280;60173;52.112;8.648;2023-04-01T06:18:27;98508.53;;;8.17;100.00
72262;BME280;60173;52.112;8.648;2023-04-01T06:29:49;98517.63;;;8.33;100.00
72262;BME280;60173;52.112;8.648;2023-04-01T06:32:28;98516.63;;;8.46;100.00
72262;BME280;60173;52.112;8.648;2023-04-01T06:38:02;98527.94;;;8.60;100.00
72262;BME280;60173;52.112;8.648;2023-04-01T06:49:11;98533.72;;;8.92;98.62
72262;BME280;60173;52.112;8.648;2023-04-01T06:54:21;98543.59;;;9.21;97.11
72262;BME280;60173;52.112;8.648;2023-04-01T06:56:52;98537.16;;;9.14;97.44
72262;BME280;60173;52.112;8.648;2023-04-01T06:59:22;98539.81;;;9.35;96.25
72262;BME280;60173;52.112;8.648;2023-04-01T07:04:48;98540.81;;;9.42;96.72
72262;BME280;60173;52.112;8.648;2023-04-01T07:07:36;98547.63;;;9.61;96.43
72262;BME280;60173;52.112;8.648;2023-04-01T07:12:56;98542.09;;;9.69;96.02
72262;BME280;60173;52.112;8.648;2023-04-01T07:15:28;98548.31;;;9.58;95.26
72262;BME280;60173;52.112;8.648;2023-04-01T07:18:10;98555.41;;;9.50;95.67
72262;BME280;60173;52.112;8.648;2023-04-01T07:20:38;98549.97;;;9.38;97.11
72262;BME280;60173;52.112;8.648;2023-04-01T07:23:32;98556.06;;;9.35;97.85
72262;BME280;60173;52.112;8.648;2023-04-01T07:26:18;98564.28;;;9.26;98.49
72262;BME280;60173;52.112;8.648;2023-04-01T07:28:45;98561.88;;;9.24;98.76
72262;BME280;60173;52.112;8.648;2023-04-01T07:31:21;98561.31;;;9.19;98.75
72262;BME280;60173;52.112;8.648;2023-04-01T07:34:01;98563.13;;;9.15;99.08
72262;BME280;60173;52.112;8.648;2023-04-01T07:36:42;98575.16;;;9.05;99.85
72262;BME280;60173;52.112;8.648;2023-04-01T07:39:36;98571.06;;;8.99;99.92
72262;BME280;60173;52.112;8.648;2023-04-01T07:45:11;98574.78;;;8.94;99.83
72262;BME280;60173;52.112;8.648;2023-04-01T07:48:07;98575.97;;;9.05;99.77
72262;BME280;60173;52.112;8.648;2023-04-01T07:50:53;98581.63;;;9.13;99.33
72262;BME280;60173;52.112;8.648;2023-04-01T07:53:37;98585.31;;;9.08;99.28
72262;BME280;60173;52.112;8.648;2023-04-01T07:56:13;98585.47;;;9.12;99.57
72262;BME280;60173;52.112;8.648;2023-04-01T08:09:38;98602.53;;;8.91;100.00
72262;BME280;60173;52.112;8.648;2023-04-01T08:12:35;98599.75;;;9.00;100.00
72262;BME280;60173;52.112;8.648;2023-04-01T08:15:28;98599.59;;;8.96;99.35
72262;BME280;60173;52.112;8.648;2023-04-01T08:21:05;98606.03;;;8.92;99.89
72262;BME280;60173;52.112;8.648;2023-04-01T08:23:41;98613.88;;;9.05;99.84
72262;BME280;60173;52.112;8.648;2023-04-01T08:26:30;98619.69;;;8.95;100.00
72262;BME280;60173;52.112;8.648;2023-04-01T08:29:02;98621.91;;;8.93;100.00
72262;BME280;60173;52.112;8.648;2023-04-01T08:31:37;98618.44;;;8.93;100.00
72262;BME280;60173;52.112;8.648;2023-04-01T08:34:18;98623.25;;;8.87;100.00
72262;BME280;60173;52.112;8.648;2023-04-01T08:36:50;98626.31;;;8.86;100.00
72262;BME280;60173;52.112;8.648;2023-04-01T08:39:28;98629.31;;;8.84;100.00
72262;BME280;60173;52.112;8.648;2023-04-01T08:45:09;98634.34;;;8.94;100.00
72262;BME280;60173;52.112;8.648;2023-04-01T08:47:54;98630.34;;;9.13;100.00
72262;BME280;60173;52.112;8.648;2023-04-01T08:50:46;98638.94;;;9.15;100.00
72262;BME280;60173;52.112;8.648;2023-04-01T08:56:26;98633.09;;;9.58;99.06
72262;BME280;60173;52.112;8.648;2023-04-01T09:02:20;98642.03;;;9.83;98.13
72262;BME280;60173;52.112;8.648;2023-04-01T09:08:01;98638.69;;;10.23;96.60
72262;BME280;60173;52.112;8.648;2023-04-01T09:13:27;98647.88;;;10.96;94.88
72262;BME280;60173;52.112;8.648;2023-04-01T09:16:13;98652.91;;;11.38;93.68
72262;BME280;60173;52.112;8.648;2023-04-01T09:19:04;98639.88;;;11.59;91.14
72262;BME280;60173;52.112;8.648;2023-04-01T09:24:22;98651.53;;;11.44;89.03
72262;BME280;60173;52.112;8.648;2023-04-01T09:40:54;98663.63;;;11.90;89.44
72262;BME280;60173;52.112;8.648;2023-04-01T09:52:31;98669.91;;;13.12;84.37
72262;BME280;60173;52.112;8.648;2023-04-01T09:55:52;98674.41;;;13.24;83.41
72262;BME280;60173;52.112;8.648;2023-04-01T09:58:08;98678.97;;;13.17;81.95
72262;BME280;60173;52.112;8.648;2023-04-01T10:00:52;98687.56;;;12.99;80.57
72262;BME280;60173;52.112;8.648;2023-04-01T10:03:59;98683.09;;;12.91;81.72
72262;BME280;60173;52.112;8.648;2023-04-01T10:06:44;98681.03;;;12.69;83.38
72262;BME280;60173;52.112;8.648;2023-04-01T10:23:10;98697.22;;;12.97;81.11
72262;BME280;60173;52.112;8.648;2023-04-01T10:31:42;98707.56;;;12.72;80.08
72262;BME280;60173;52.112;8.648;2023-04-01T10:36:59;98706.72;;;12.68;82.69
72262;BME280;60173;52.112;8.648;2023-04-01T10:43:00;98700.75;;;12.14;84.25
72262;BME280;60173;52.112;8.648;2023-04-01T10:45:58;98713.84;;;11.93;86.12
72262;BME280;60173;52.112;8.648;2023-04-01T10:51:25;98713.06;;;12.08;87.38
72262;BME280;60173;52.112;8.648;2023-04-01T10:56:55;98716.94;;;11.79;87.79
72262;BME280;60173;52.112;8.648;2023-04-01T10:59:36;98718.25;;;11.41;89.08
72262;BME280;60173;52.112;8.648;2023-04-01T11:14:57;98727.38;;;12.21;87.12
72262;BME280;60173;52.112;8.648;2023-04-01T11:17:14;98722.19;;;12.32;86.78
72262;BME280;60173;52.112;8.648;2023-04-01T11:25:42;98722.38;;;13.45;83.04
72262;BME280;60173;52.112;8.648;2023-04-01T11:31:03;98724.84;;;13.92;80.64
72262;BME280;60173;52.112;8.648;2023-04-01T11:39:29;98732.38;;;12.51;85.61
72262;BME280;60173;52.112;8.648;2023-04-01T11:42:23;98740.97;;;11.89;88.95
72262;BME280;60173;52.112;8.648;2023-04-01T11:47:54;98744.28;;;11.70;89.98
72262;BME280;60173;52.112;8.648;2023-04-01T11:53:18;98756.47;;;11.20;91.83
72262;BME280;60173;52.112;8.648;2023-04-01T11:55:53;98755.00;;;11.23;91.72
72262;BME280;60173;52.112;8.648;2023-04-01T11:58:54;98763.63;;;11.53;91.78
72262;BME280;60173;52.112;8.648;2023-04-01T12:09:47;98764.16;;;12.62;87.01
72262;BME280;60173;52.112;8.648;2023-04-01T12:35:21;98784.41;;;14.29;78.48
72262;BME280;60173;52.112;8.648;2023-04-01T12:38:02;98789.13;;;14.09;78.87
72262;BME280;60173;52.112;8.648;2023-04-01T12:41:03;98789.78;;;13.83;78.33
72262;BME280;60173;52.112;8.648;2023-04-01T12:43:52;98802.63;;;13.44;79.64
72262;BME280;60173;52.112;8.648;2023-04-01T12:49:34;98809.50;;;13.38;80.40
72262;BME280;60173;52.112;8.648;2023-04-01T12:54:59;98810.94;;;13.51;78.82
72262;BME280;60173;52.112;8.648;2023-04-01T13:06:27;98819.94;;;14.10;79.14
72262;BME280;60173;52.112;8.648;2023-04-01T13:09:13;98823.66;;;14.44;78.26
72262;BME280;60173;52.112;8.648;2023-04-01T13:20:03;98834.84;;;14.35;76.99
72262;BME280;60173;52.112;8.648;2023-04-01T13:34:13;98848.91;;;13.60;78.54
72262;BME280;60173;52.112;8.648;2023-04-01T13:36:58;98848.38;;;13.89;78.46
72262;BME280;60173;52.112;8.648;2023-04-01T13:42:13;98852.63;;;14.48;76.06
72262;BME280;60173;52.112;8.648;2023-04-01T13:44:48;98846.31;;;14.44;71.68
72262;BME280;60173;52.112;8.648;2023-04-01T13:47:38;98851.41;;;14.46;73.66
72262;BME280;60173;52.112;8.648;2023-04-01T13:53:07;98857.03;;;14.76;71.70
72262;BME280;60173;52.112;8.648;2023-04-01T13:58:57;98862.00;;;14.28;75.42
72262;BME280;60173;52.112;8.648;2023-04-01T14:07:31;98873.06;;;13.96;74.70
72262;BME280;60173;52.112;8.648;2023-04-01T14:18:29;98897.09;;;13.04;76.14
72262;BME280;60173;52.112;8.648;2023-04-01T14:21:41;98905.72;;;12.91;78.85
72262;BME280;60173;52.112;8.648;2023-04-01T14:32:57;98919.41;;;12.62;81.74
72262;BME280;60173;52.112;8.648;2023-04-01T14:38:21;98923.69;;;12.63;80.66
72262;BME280;60173;52.112;8.648;2023-04-01T14:41:16;98924.44;;;12.92;79.64
72262;BME280;60173;52.112;8.648;2023-04-01T14:46:56;98927.91;;;13.37;77.29
72262;BME280;60173;52.112;8.648;2023-04-01T14:49:42;98942.84;;;13.11;78.46
72262;BME280;60173;52.112;8.648;2023-04-01T14:52:27;98932.88;;;13.19;79.22
72262;BME280;60173;52.112;8.648;2023-04-01T14:54:56;98938.59;;;12.98;79.57
72262;BME280;60173;52.112;8.648;2023-04-01T14:57:25;98941.03;;;13.31;79.57
72262;BME280;60173;52.112;8.648;2023-04-01T15:00:12;98940.91;;;13.11;78.34
72262;BME280;60173;52.112;8.648;2023-04-01T15:05:15;98948.53;;;13.53;78.72
72262;BME280;60173;52.112;8.648;2023-04-01T15:18:44;98977.47;;;12.66;79.90
72262;BME280;60173;52.112;8.648;2023-04-01T15:24:10;98995.91;;;12.57;82.97
72262;BME280;60173;52.112;8.648;2023-04-01T15:26:47;98995.56;;;12.31;84.32
72262;BME280;60173;52.112;8.648;2023-04-01T15:43:13;99025.56;;;10.66;93.02
72262;BME280;60173;52.112;8.648;2023-04-01T15:45:56;99029.06;;;11.00;92.45
72262;BME280;60173;52.112;8.648;2023-04-01T15:51:21;99035.75;;;10.69;91.23
72262;BME280;60173;52.112;8.648;2023-04-01T16:01:59;99052.44;;;10.38;94.03
72262;BME280;60173;52.112;8.648;2023-04-01T16:04:47;99054.25;;;10.34;94.83
72262;BME280;60173;52.112;8.648;2023-04-01T16:10:09;99063.53;;;10.24;95.30
72262;BME280;60173;52.112;8.648;2023-04-01T16:20:57;99079.88;;;10.45;89.70
72262;BME280;60173;52.112;8.648;2023-04-01T16:23:43;99077.34;;;10.40;89.52
72262;BME280;60173;52.112;8.648;2023-04-01T16:28:57;99090.72;;;10.45;88.75
72262;BME280;60173;52.112;8.648;2023-04-01T16:31:47;99098.00;;;10.24;92.39
72262;BME280;60173;52.112;8.648;2023-04-01T16:34:24;99108.47;;;10.13;94.81
72262;BME280;60173;52.112;8.648;2023-04-01T16:37:00;99124.94;;;9.61;97.10
72262;BME280;60173;52.112;8.648;2023-04-01T16:39:33;99112.59;;;9.25;99.10
72262;BME280;60173;52.112;8.648;2023-04-01T16:44:55;99136.34;;;8.93;99.90
72262;BME280;60173;52.112;8.648;2023-04-01T16:48:05;99131.44;;;8.78;100.00
72262;BME280;60173;52.112;8.648;2023-04-01T16:50:53;99148.63;;;8.82;99.55
72262;BME280;60173;52.112;8.648;2023-04-01T16:53:25;99148.47;;;8.70;100.00
72262;BME280;60173;52.112;8.648;2023-04-01T16:58:36;99168.19;;;8.62;100.00
72262;BME280;60173;52.112;8.648;2023-04-01T17:01:12;99167.88;;;8.54;100.00
72262;BME280;60173;52.112;8.648;2023-04-01T17:03:43;99166.88;;;8.50;99.66
72262;BME280;60173;52.112;8.648;2023-04-01T17:06:27;99185.38;;;8.48;99.96
72262;BME280;60173;52.112;8.648;2023-04-01T17:11:35;99198.03;;;8.30;100.00
72262;BME280;60173;52.112;8.648;2023-04-01T17:16:56;99203.59;;;8.34;100.00
72262;BME280;60173;52.112;8.648;2023-04-01T17:19:42;99225.47;;;8.46;100.00
72262;BME280;60173;52.112;8.648;2023-04-01T17:22:33;99219.34;;;8.32;100.00
72262;BME280;60173;52.112;8.648;2023-04-01T17:25:36;99224.44;;;8.33;100.00
72262;BME280;60173;52.112;8.648;2023-04-01T17:36:13;99256.19;;;7.88;100.00
72262;BME280;60173;52.112;8.648;2023-04-01T17:39:00;99262.72;;;7.87;100.00
72262;BME280;60173;52.112;8.648;2023-04-01T17:41:45;99260.38;;;7.94;99.23
72262;BME280;60173;52.112;8.648;2023-04-01T17:49:41;99274.94;;;7.84;98.63
72262;BME280;60173;52.112;8.648;2023-04-01T17:52:41;99287.22;;;7.90;98.88
72262;BME280;60173;52.112;8.648;2023-04-01T17:55:27;99300.19;;;7.80;99.42
72262;BME280;60173;52.112;8.648;2023-04-01T17:58:08;99291.78;;;7.59;100.00
72262;BME280;60173;52.112;8.648;2023-04-01T18:06:21;99328.13;;;7.53;99.73
72262;BME280;60173;52.112;8.648;2023-04-01T18:14:45;99339.84;;;7.48;100.00
72262;BME280;60173;52.112;8.648;2023-04-01T18:17:48;99359.19;;;7.41;100.00
72262;BME280;60173;52.112;8.648;2023-04-01T18:20:36;99353.97;;;7.31;100.00
72262;BME280;60173;52.112;8.648;2023-04-01T18:26:06;99384.72;;;7.08;100.00
72262;BME280;60173;52.112;8.648;2023-04-01T18:28:49;99389.91;;;6.90;100.00
72262;BME280;60173;52.112;8.648;2023-04-01T18:31:20;99403.38;;;6.76;100.00
72262;BME280;60173;52.112;8.648;2023-04-01T18:34:00;99406.00;;;6.82;100.00
72262;BME280;60173;52.112;8.648;2023-04-01T18:36:47;99414.59;;;6.84;100.00
72262;BME280;60173;52.112;8.648;2023-04-01T18:39:22;99425.56;;;6.73;100.00
72262;BME280;60173;52.112;8.648;2023-04-01T18:41:56;99418.16;;;6.51;100.00
72262;BME280;60173;52.112;8.648;2023-04-01T18:44:38;99429.16;;;6.55;100.00
72262;BME280;60173;52.112;8.648;2023-04-01T18:50:21;99449.72;;;6.51;100.00
72262;BME280;60173;52.112;8.648;2023-04-01T18:52:56;99452.06;;;6.39;100.00
72262;BME280;60173;52.112;8.648;2023-04-01T18:55:39;99460.81;;;6.30;100.00
72262;BME280;60173;52.112;8.648;2023-04-01T18:58:14;99476.06;;;6.40;100.00
72262;BME280;60173;52.112;8.648;2023-04-01T19:03:37;99487.78;;;6.30;100.00
72262;BME280;60173;52.112;8.648;2023-04-01T19:06:42;99478.44;;;6.42;100.00
72262;BME280;60173;52.112;8.648;2023-04-01T19:09:48;99495.25;;;6.20;100.00
72262;BME280;60173;52.112;8.648;2023-04-01T19:12:30;99498.28;;;6.13;100.00
72262;BME280;60173;52.112;8.648;2023-04-01T19:20:47;99515.81;;;5.92;100.00
72262;BME280;60173;52.112;8.648;2023-04-01T19:25:58;99527.03;;;5.80;100.00
72262;BME280;60173;52.112;8.648;2023-04-01T19:28:40;99544.44;;;5.87;100.00
72262;BME280;60173;52.112;8.648;2023-04-01T19:34:18;99543.97;;;5.80;100.00
72262;BME280;60173;52.112;8.648;2023-04-01T19:36:50;99554.72;;;5.85;100.00
72262;BME280;60173;52.112;8.648;2023-04-01T19:39:31;99563.47;;;5.72;100.00
72262;BME280;60173;52.112;8.648;2023-04-01T19:50:38;99591.13;;;5.59;100.00
72262;BME280;60173;52.112;8.648;2023-04-01T19:53:23;99583.63;;;5.56;100.00
72262;BME280;60173;52.112;8.648;2023-04-01T19:58:42;99608.31;;;5.63;100.00
72262;BME280;60173;52.112;8.648;2023-04-01T20:01:21;99603.97;;;5.67;99.55
72262;BME280;60173;52.112;8.648;2023-04-01T20:04:08;99610.59;;;5.51;99.83
72262;BME280;60173;52.112;8.648;2023-04-01T20:06:44;99617.47;;;5.62;99.44
72262;BME280;60173;52.112;8.648;2023-04-01T20:09:41;99631.59;;;5.49;99.60
72262;BME280;60173;52.112;8.648;2023-04-01T20:15:02;99645.75;;;5.35;99.68
72262;BME280;60173;52.112;8.648;2023-04-01T20:17:42;99655.81;;;5.54;99.61